createdAt,value
2022-10-28T00:01:15.937Z,14.78
2022-10-28T00:03:45.991Z,14.78
2022-10-28T00:06:17.563Z,14.78
2022-10-28T00:08:45.203Z,14.81
2022-10-28T00:11:21.803Z,14.82
2022-10-28T00:13:52.502Z,14.84
2022-10-28T00:16:23.546Z,14.85
2022-10-28T00:18:53.888Z,14.87
2022-10-28T00:21:30.191Z,14.88
2022-10-28T00:23:57.796Z,14.89
2022-10-28T00:26:30.623Z,14.89
2022-10-28T00:29:04.347Z,14.89
2022-10-28T00:31:33.443Z,14.92
2022-10-28T00:34:03.851Z,14.95
2022-10-28T00:36:34.462Z,15.01
2022-10-28T00:39:04.110Z,15.02
2022-10-28T00:41:35.196Z,15.01
2022-10-28T00:44:37.796Z,14.96
2022-10-28T00:47:17.635Z,14.96
2022-10-28T00:49:47.847Z,14.96
2022-10-28T00:52:24.367Z,14.95
2022-10-28T00:54:53.211Z,14.96
2022-10-28T00:57:25.109Z,14.94
2022-10-28T00:59:54.298Z,14.95
2022-10-28T01:02:21.992Z,14.96
2022-10-28T01:04:50.410Z,14.93
2022-10-28T01:07:17.976Z,14.93
2022-10-28T01:09:46.002Z,14.95
2022-10-28T01:12:32.204Z,14.94
2022-10-28T01:15:32.912Z,14.93
2022-10-28T01:18:09.258Z,14.97
2022-10-28T01:20:41.612Z,14.95
2022-10-28T01:23:43.662Z,14.96
2022-10-28T01:26:23.022Z,14.98
2022-10-28T01:29:11.093Z,15.02
2022-10-28T01:31:47.427Z,15.02
2022-10-28T01:34:48.762Z,15.03
2022-10-28T01:37:34.203Z,15.03
2022-10-28T01:40:16.063Z,15.05
2022-10-28T01:43:13.769Z,15.07
2022-10-28T01:45:52.047Z,15.08
2022-10-28T01:48:25.292Z,15.10
2022-10-28T01:50:59.108Z,15.11
2022-10-28T01:53:33.804Z,15.12
2022-10-28T01:56:07.511Z,15.13
2022-10-28T01:58:38.556Z,15.16
2022-10-28T02:01:09.261Z,15.17
2022-10-28T02:03:37.261Z,15.21
2022-10-28T02:06:07.918Z,15.25
2022-10-28T02:08:43.979Z,15.29
2022-10-28T02:11:14.416Z,15.31
2022-10-28T02:14:22.904Z,15.32
2022-10-28T02:16:58.484Z,15.34
2022-10-28T02:19:51.262Z,15.35
2022-10-28T02:22:23.876Z,15.37
2022-10-28T02:25:21.917Z,15.37
2022-10-28T02:27:55.818Z,15.38
2022-10-28T02:30:34.921Z,15.41
2022-10-28T02:33:07.027Z,15.43
2022-10-28T02:35:53.121Z,15.43
2022-10-28T02:38:27.964Z,15.44
2022-10-28T02:41:02.419Z,15.44
2022-10-28T02:43:35.267Z,15.43
2022-10-28T02:46:04.708Z,15.44
2022-10-28T02:48:39.884Z,15.43
2022-10-28T02:51:15.301Z,15.39
2022-10-28T02:54:19.102Z,15.36
2022-10-28T02:56:55.619Z,15.33
2022-10-28T02:59:25.049Z,15.30
2022-10-28T03:01:52.700Z,15.27
2022-10-28T03:04:20.311Z,15.30
2022-10-28T03:06:47.899Z,15.31
2022-10-28T03:09:15.392Z,15.32
2022-10-28T03:11:43.027Z,15.36
2022-10-28T03:14:13.215Z,15.38
2022-10-28T03:16:43.462Z,15.41
2022-10-28T03:19:10.946Z,15.42
2022-10-28T03:21:38.461Z,15.43
2022-10-28T03:24:06.280Z,15.46
2022-10-28T03:26:33.766Z,15.48
2022-10-28T03:29:01.285Z,15.49
2022-10-28T03:31:29.332Z,15.47
2022-10-28T03:33:56.839Z,15.47
2022-10-28T03:36:24.446Z,15.47
2022-10-28T03:38:51.989Z,15.48
2022-10-28T03:41:19.587Z,15.47
2022-10-28T03:43:47.028Z,15.48
2022-10-28T03:46:14.556Z,15.47
2022-10-28T03:48:42.021Z,15.47
2022-10-28T03:51:09.578Z,15.49
2022-10-28T03:53:37.116Z,15.48
2022-10-28T03:56:05.264Z,15.48
2022-10-28T03:58:36.045Z,15.49
2022-10-28T04:01:05.678Z,15.49
2022-10-28T04:03:33.175Z,15.48
2022-10-28T04:06:00.676Z,15.47
2022-10-28T04:08:28.195Z,15.47
2022-10-28T04:10:55.692Z,15.44
2022-10-28T04:13:23.121Z,15.42
2022-10-28T04:15:50.633Z,15.43
2022-10-28T04:18:18.104Z,15.43
2022-10-28T04:20:46.571Z,15.45
2022-10-28T04:23:17.066Z,15.44
2022-10-28T04:25:45.079Z,15.42
2022-10-28T04:28:12.576Z,15.40
2022-10-28T04:30:40.086Z,15.39
2022-10-28T04:33:07.611Z,15.37
2022-10-28T04:35:35.162Z,15.36
2022-10-28T04:38:02.811Z,15.33
2022-10-28T04:40:30.423Z,15.29
2022-10-28T04:42:57.851Z,15.24
2022-10-28T04:45:25.419Z,15.26
2022-10-28T04:48:01.896Z,15.27
2022-10-28T04:50:29.523Z,15.24
2022-10-28T04:52:57.030Z,15.21
2022-10-28T04:55:24.619Z,15.19
2022-10-28T04:57:59.927Z,15.18
2022-10-28T05:00:28.940Z,15.16
2022-10-28T05:02:57.358Z,15.14
2022-10-28T05:05:25.976Z,15.17
2022-10-28T05:07:53.659Z,15.19
2022-10-28T05:10:21.437Z,15.21
2022-10-28T05:12:49.083Z,15.27
2022-10-28T05:15:17.042Z,15.31
2022-10-28T05:17:46.398Z,15.33
2022-10-28T05:20:16.373Z,15.32
2022-10-28T05:22:49.122Z,15.31
2022-10-28T05:25:17.712Z,15.29
2022-10-28T05:27:45.764Z,15.29
2022-10-28T05:30:14.342Z,15.28
2022-10-28T05:32:41.934Z,15.27
2022-10-28T05:35:10.061Z,15.30
2022-10-28T05:37:38.028Z,15.29
2022-10-28T05:40:06.283Z,15.30
2022-10-28T05:42:33.720Z,15.29
2022-10-28T05:45:01.230Z,15.29
2022-10-28T05:47:28.689Z,15.32
2022-10-28T05:49:56.236Z,15.32
2022-10-28T05:52:23.755Z,15.35
2022-10-28T05:54:51.265Z,15.34
2022-10-28T05:57:18.740Z,15.36
2022-10-28T05:59:46.233Z,15.36
2022-10-28T06:02:15.212Z,15.37
2022-10-28T06:04:42.744Z,15.40
2022-10-28T06:07:10.197Z,15.38
2022-10-28T06:09:37.758Z,15.37
2022-10-28T06:12:05.307Z,15.36
2022-10-28T06:14:33.005Z,15.34
2022-10-28T06:17:00.730Z,15.36
2022-10-28T06:19:28.273Z,15.36
2022-10-28T06:21:55.729Z,15.38
2022-10-28T06:24:23.240Z,15.38
2022-10-28T06:26:50.826Z,15.41
2022-10-28T06:29:19.067Z,15.42
2022-10-28T06:31:46.599Z,15.43
2022-10-28T06:34:14.104Z,15.42
2022-10-28T06:36:41.991Z,15.44
2022-10-28T06:39:09.604Z,15.45
2022-10-28T06:41:37.187Z,15.46
2022-10-28T06:44:04.831Z,15.48
2022-10-28T06:46:34.040Z,15.48
2022-10-28T06:49:04.806Z,15.53
2022-10-28T06:51:32.664Z,15.56
2022-10-28T06:54:00.393Z,15.56
2022-10-28T06:56:27.943Z,15.55
2022-10-28T06:58:55.660Z,15.54
2022-10-28T07:01:23.272Z,15.52
2022-10-28T07:03:50.823Z,15.50
2022-10-28T07:06:18.401Z,15.49
2022-10-28T07:08:45.959Z,15.49
2022-10-28T07:11:14.173Z,15.49
2022-10-28T07:13:42.512Z,15.48
2022-10-28T07:16:11.871Z,15.48
2022-10-28T07:18:39.481Z,15.46
2022-10-28T07:21:07.109Z,15.46
2022-10-28T07:23:35.055Z,15.47
2022-10-28T07:26:02.594Z,15.48
2022-10-28T07:28:30.834Z,15.50
2022-10-28T07:31:02.709Z,15.51
2022-10-28T07:33:30.513Z,15.53
2022-10-28T07:35:58.040Z,15.52
2022-10-28T07:38:26.547Z,15.54
2022-10-28T07:40:54.168Z,15.53
2022-10-28T07:43:21.775Z,15.54
2022-10-28T07:45:55.379Z,15.57
2022-10-28T07:48:23.245Z,15.59
2022-10-28T07:50:50.806Z,15.59
2022-10-28T07:53:18.374Z,15.57
2022-10-28T07:55:45.918Z,15.55
2022-10-28T07:58:13.403Z,15.54
2022-10-28T08:00:41.011Z,15.58
2022-10-28T08:03:08.734Z,15.68
2022-10-28T08:05:36.207Z,15.75
2022-10-28T08:08:03.785Z,15.81
2022-10-28T08:10:31.291Z,15.91
2022-10-28T08:13:00.855Z,16.00
2022-10-28T08:15:29.907Z,16.09
2022-10-28T08:17:57.602Z,16.19
2022-10-28T08:20:25.262Z,16.29
2022-10-28T08:22:53.075Z,16.36
2022-10-28T08:25:20.840Z,16.42
2022-10-28T08:30:15.989Z,16.49
2022-10-28T08:32:43.472Z,16.51
2022-10-28T08:35:11.018Z,16.55
2022-10-28T08:37:38.549Z,16.58
2022-10-28T08:40:06.888Z,16.60
2022-10-28T08:42:57.528Z,16.47
2022-10-28T08:45:53.200Z,16.40
2022-10-28T08:48:26.425Z,16.34
2022-10-28T08:51:09.654Z,16.38
2022-10-28T08:54:03.918Z,16.29
2022-10-28T08:56:46.296Z,16.06
2022-10-28T08:59:19.092Z,15.88
2022-10-28T09:01:49.200Z,15.73
2022-10-28T09:04:23.120Z,15.53
2022-10-28T09:06:50.706Z,15.38
2022-10-28T09:09:21.885Z,15.22
2022-10-28T09:12:05.496Z,14.98
2022-10-28T09:15:02.061Z,14.64
2022-10-28T09:17:32.618Z,14.38
2022-10-28T09:20:05.642Z,14.12
2022-10-28T09:22:45.351Z,13.81
2022-10-28T09:25:21.967Z,13.57
2022-10-28T09:27:55.577Z,13.40
2022-10-28T09:30:38.837Z,13.23
2022-10-28T09:33:41.661Z,13.17
2022-10-28T09:36:17.012Z,13.13
2022-10-28T09:38:45.733Z,13.09
2022-10-28T09:41:27.838Z,13.07
2022-10-28T09:44:05.135Z,13.03
2022-10-28T09:46:36.233Z,13.01
2022-10-28T09:49:11.165Z,13.00
2022-10-28T09:51:49.967Z,12.98
2022-10-28T09:54:19.625Z,12.95
2022-10-28T09:56:47.174Z,12.95
2022-10-28T09:59:16.519Z,12.96
2022-10-28T10:01:46.775Z,12.97
2022-10-28T10:04:21.010Z,13.03
2022-10-28T10:07:01.050Z,13.08
2022-10-28T10:09:31.456Z,13.09
2022-10-28T10:12:13.419Z,13.10
2022-10-28T10:14:46.044Z,13.10
2022-10-28T10:17:45.911Z,13.10
2022-10-28T10:20:19.054Z,13.16
2022-10-28T10:22:49.052Z,13.20
2022-10-28T10:25:19.276Z,13.29
2022-10-28T10:27:51.710Z,13.32
2022-10-28T10:30:24.385Z,13.39
2022-10-28T10:32:52.775Z,13.49
2022-10-28T10:35:25.260Z,13.69
2022-10-28T10:37:55.953Z,14.03
2022-10-28T10:40:34.002Z,14.84
2022-10-28T10:43:30.900Z,14.93
2022-10-28T10:46:08.120Z,14.92
2022-10-28T10:48:36.741Z,14.78
2022-10-28T10:51:12.575Z,14.62
2022-10-28T10:53:40.812Z,14.56
2022-10-28T10:56:11.159Z,14.56
2022-10-28T10:58:47.301Z,14.59
2022-10-28T11:01:21.080Z,14.62
2022-10-28T11:03:54.227Z,14.58
2022-10-28T11:06:26.833Z,14.52
2022-10-28T11:09:03.986Z,14.46
2022-10-28T11:11:37.457Z,14.54
2022-10-28T11:14:11.043Z,14.61
2022-10-28T11:16:53.509Z,14.70
2022-10-28T11:19:24.649Z,14.77
2022-10-28T11:22:08.400Z,14.76
2022-10-28T11:24:45.099Z,14.70
2022-10-28T11:27:39.228Z,14.72
2022-10-28T11:30:13.973Z,14.72
2022-10-28T11:33:28.657Z,14.72
2022-10-28T11:36:11.668Z,14.73
2022-10-28T11:38:59.592Z,14.72
2022-10-28T11:41:51.937Z,14.68
2022-10-28T11:44:52.951Z,14.58
2022-10-28T11:47:41.115Z,14.46
2022-10-28T11:50:58.570Z,14.37
2022-10-28T11:53:37.325Z,14.40
2022-10-28T11:56:23.305Z,14.38
2022-10-28T11:58:56.777Z,14.37
2022-10-28T12:01:45.961Z,14.29
2022-10-28T12:04:51.556Z,14.17
2022-10-28T12:07:59.819Z,14.14
2022-10-28T12:10:42.548Z,14.09
2022-10-28T12:13:28.920Z,14.12
2022-10-28T12:16:07.517Z,14.35
2022-10-28T12:18:49.274Z,14.55
2022-10-28T12:24:09.672Z,14.89
2022-10-28T12:26:59.437Z,14.75
2022-10-28T12:29:38.816Z,14.65
2022-10-28T12:32:13.318Z,14.72
2022-10-28T12:34:49.294Z,14.73
2022-10-28T12:37:22.157Z,14.81
2022-10-28T12:40:04.868Z,14.90
2022-10-28T12:42:38.936Z,14.93
2022-10-28T12:45:12.078Z,14.89
2022-10-28T12:47:45.793Z,14.76
2022-10-28T12:50:17.613Z,14.64
2022-10-28T12:53:14.405Z,14.57
2022-10-28T12:55:51.505Z,14.57
2022-10-28T12:58:58.189Z,14.59
2022-10-28T13:01:31.078Z,14.68
2022-10-28T13:03:58.881Z,14.77
2022-10-28T13:06:29.661Z,14.87
2022-10-28T13:09:32.189Z,14.94
2022-10-28T13:12:27.006Z,15.02
2022-10-28T13:17:52.475Z,14.94
2022-10-28T13:20:28.389Z,14.99
2022-10-28T13:23:31.251Z,15.01
2022-10-28T13:26:39.847Z,14.93
2022-10-28T13:29:18.363Z,14.90
2022-10-28T13:31:47.987Z,14.94
2022-10-28T13:34:18.886Z,15.02
2022-10-28T13:36:57.524Z,15.05
2022-10-28T13:39:28.205Z,15.01
2022-10-28T13:42:14.940Z,14.95
2022-10-28T13:44:50.146Z,14.94
2022-10-28T13:47:17.702Z,14.92
2022-10-28T13:50:33.102Z,14.99
2022-10-28T13:53:25.595Z,15.04
2022-10-28T13:55:58.116Z,15.06
2022-10-28T13:58:26.895Z,15.10
2022-10-28T14:00:55.109Z,15.11
2022-10-28T14:03:26.012Z,15.11
2022-10-28T14:05:57.672Z,15.12
2022-10-28T14:08:29.587Z,15.15
2022-10-28T14:11:05.993Z,15.18
2022-10-28T14:13:47.939Z,15.26
2022-10-28T14:16:39.379Z,15.34
2022-10-28T14:19:06.881Z,15.41
2022-10-28T14:22:01.976Z,15.43
2022-10-28T14:24:40.838Z,15.46
2022-10-28T14:27:08.432Z,15.47
2022-10-28T14:29:48.554Z,15.52
2022-10-28T14:32:31.172Z,15.68
2022-10-28T14:35:10.709Z,15.84
2022-10-28T14:38:10.650Z,16.04
2022-10-28T14:40:54.160Z,16.20
2022-10-28T14:43:40.296Z,16.31
2022-10-28T14:46:34.213Z,16.42
2022-10-28T14:49:03.849Z,16.40
2022-10-28T14:51:39.613Z,16.47
2022-10-28T14:54:13.572Z,16.49
2022-10-28T14:56:41.452Z,16.47
2022-10-28T14:59:26.124Z,16.49
2022-10-28T15:01:59.726Z,16.39
2022-10-28T15:04:29.112Z,16.27
2022-10-28T15:06:57.474Z,16.15
2022-10-28T15:09:29.621Z,15.97
2022-10-28T15:12:01.082Z,15.83
2022-10-28T15:14:41.902Z,15.75
2022-10-28T15:17:17.090Z,15.57
2022-10-28T15:19:47.103Z,15.46
2022-10-28T15:22:20.769Z,15.37
2022-10-28T15:25:08.249Z,15.27
2022-10-28T15:27:38.270Z,15.22
2022-10-28T15:30:26.566Z,15.17
2022-10-28T15:32:55.720Z,15.16
2022-10-28T15:35:38.414Z,15.12
2022-10-28T15:38:21.338Z,15.03
2022-10-28T15:40:50.178Z,14.93
2022-10-28T15:43:21.098Z,14.84
2022-10-28T15:45:48.727Z,14.77
2022-10-28T15:48:23.730Z,14.71
2022-10-28T15:51:11.012Z,14.68
2022-10-28T15:53:40.617Z,14.63
2022-10-28T15:56:13.911Z,14.61
2022-10-28T15:58:43.461Z,14.59
2022-10-28T16:01:40.658Z,14.56
2022-10-28T16:04:23.355Z,14.54
2022-10-28T16:06:53.348Z,14.56
2022-10-28T16:09:34.141Z,14.58
2022-10-28T16:12:23.704Z,14.62
2022-10-28T16:15:00.734Z,14.64
2022-10-28T16:17:36.277Z,14.67
2022-10-28T16:20:17.222Z,14.67
2022-10-28T16:22:46.726Z,14.64
2022-10-28T16:25:17.578Z,14.62
2022-10-28T16:27:45.059Z,14.59
2022-10-28T16:30:13.101Z,14.52
2022-10-28T16:32:44.441Z,14.48
2022-10-28T16:35:22.655Z,14.41
2022-10-28T16:37:55.146Z,14.35
2022-10-28T16:43:22.629Z,14.25
2022-10-28T16:45:52.443Z,14.22
2022-10-28T16:48:22.659Z,14.22
2022-10-28T16:51:02.583Z,14.21
2022-10-28T16:53:32.099Z,14.20
2022-10-28T16:55:59.662Z,14.16
2022-10-28T16:58:28.804Z,14.14
2022-10-28T17:00:57.114Z,14.13
2022-10-28T17:03:24.628Z,14.13
2022-10-28T17:05:52.202Z,14.12
2022-10-28T17:08:36.236Z,14.12
2022-10-28T17:11:07.474Z,14.09
2022-10-28T17:13:35.036Z,14.07
2022-10-28T17:16:02.617Z,14.04
2022-10-28T17:18:30.765Z,14.03
2022-10-28T17:21:02.455Z,14.00
2022-10-28T17:23:30.548Z,13.98
2022-10-28T17:26:00.867Z,13.96
2022-10-28T17:28:28.826Z,13.93
2022-10-28T17:31:07.714Z,13.90
2022-10-28T17:33:35.346Z,13.88
2022-10-28T17:36:10.586Z,13.88
2022-10-28T17:38:38.355Z,13.88
2022-10-28T17:41:06.000Z,13.88
2022-10-28T17:43:33.628Z,13.87
2022-10-28T17:46:05.747Z,13.87
2022-10-28T17:48:34.231Z,13.89
2022-10-28T17:51:01.822Z,13.93
2022-10-28T17:53:29.448Z,13.96
2022-10-28T17:56:01.749Z,13.98
2022-10-28T17:58:29.523Z,13.96
2022-10-28T18:01:02.209Z,13.95
2022-10-28T18:03:33.990Z,13.93
2022-10-28T18:06:07.349Z,13.93
2022-10-28T18:08:39.142Z,13.91
2022-10-28T18:11:08.746Z,13.89
2022-10-28T18:13:39.107Z,13.88
2022-10-28T18:16:09.550Z,13.87
2022-10-28T18:18:42.031Z,13.90
2022-10-28T18:21:14.161Z,13.90
2022-10-28T18:23:41.869Z,13.89
2022-10-28T18:26:14.958Z,13.90
2022-10-28T18:28:43.827Z,13.90
2022-10-28T18:31:12.438Z,13.93
2022-10-28T18:33:41.167Z,13.95
2022-10-28T18:36:13.709Z,13.97
2022-10-28T18:38:41.708Z,13.97
2022-10-28T18:41:14.979Z,13.99
2022-10-28T18:43:42.578Z,13.99
2022-10-28T18:46:11.377Z,14.01
2022-10-28T18:48:39.991Z,14.00
2022-10-28T18:51:10.894Z,14.00
2022-10-28T18:53:44.142Z,14.00
2022-10-28T18:56:23.405Z,14.02
2022-10-28T18:58:52.389Z,14.03
2022-10-28T19:01:23.313Z,14.03
2022-10-28T19:03:52.998Z,14.00
2022-10-28T19:06:21.718Z,14.03
2022-10-28T19:08:54.045Z,14.07
2022-10-28T19:11:23.274Z,14.09
2022-10-28T19:13:50.823Z,14.15
2022-10-28T19:16:18.881Z,14.21
2022-10-28T19:18:46.424Z,14.26
2022-10-28T19:21:16.503Z,14.30
2022-10-28T19:23:44.099Z,14.32
2022-10-28T19:26:13.787Z,14.37
2022-10-28T19:28:46.777Z,14.41
2022-10-28T19:31:17.599Z,14.45
2022-10-28T19:33:45.644Z,14.46
2022-10-28T19:36:23.444Z,14.48
2022-10-28T19:38:55.098Z,14.53
2022-10-28T19:41:25.171Z,14.56
2022-10-28T19:43:58.918Z,14.57
2022-10-28T19:46:29.093Z,14.58
2022-10-28T19:48:59.530Z,14.61
2022-10-28T19:51:30.007Z,14.61
2022-10-28T19:54:05.712Z,14.61
2022-10-28T19:56:35.160Z,14.60
2022-10-28T19:59:04.409Z,14.59
2022-10-28T20:01:34.291Z,14.58
2022-10-28T20:04:02.207Z,14.57
2022-10-28T20:06:35.810Z,14.63
2022-10-28T20:09:04.240Z,14.62
2022-10-28T20:11:34.109Z,14.61
2022-10-28T20:14:11.740Z,14.57
2022-10-28T20:16:42.709Z,14.56
2022-10-28T20:19:10.722Z,14.55
2022-10-28T20:21:38.898Z,14.53
2022-10-28T20:24:07.557Z,14.49
2022-10-28T20:26:36.997Z,14.47
2022-10-28T20:29:06.867Z,14.46
2022-10-28T20:31:34.919Z,14.46
2022-10-28T20:34:04.088Z,14.46
2022-10-28T20:36:33.707Z,14.48
2022-10-28T20:39:02.347Z,14.51
2022-10-28T20:41:33.037Z,14.48
2022-10-28T20:44:01.633Z,14.47
2022-10-28T20:46:29.522Z,14.44
2022-10-28T20:48:57.334Z,14.42
2022-10-28T20:51:27.150Z,14.39
2022-10-28T20:53:55.592Z,14.37
2022-10-28T20:56:29.359Z,14.37
2022-10-28T20:58:57.968Z,14.37
2022-10-28T21:01:28.558Z,14.40
2022-10-28T21:03:58.701Z,14.39
2022-10-28T21:06:27.315Z,14.38
2022-10-28T21:08:55.171Z,14.36
2022-10-28T21:11:23.795Z,14.36
2022-10-28T21:13:53.521Z,14.34
2022-10-28T21:16:21.949Z,14.31
2022-10-28T21:18:49.932Z,14.30
2022-10-28T21:21:19.356Z,14.29
2022-10-28T21:23:46.957Z,14.27
2022-10-28T21:26:14.669Z,14.25
2022-10-28T21:28:42.401Z,14.26
2022-10-28T21:31:12.746Z,14.29
2022-10-28T21:33:41.805Z,14.32
2022-10-28T21:36:14.873Z,14.32
2022-10-28T21:38:42.877Z,14.35
2022-10-28T21:41:16.592Z,14.38
2022-10-28T21:43:47.873Z,14.39
2022-10-28T21:46:16.650Z,14.40
2022-10-28T21:48:44.585Z,14.38
2022-10-28T21:51:15.211Z,14.38
2022-10-28T21:53:44.682Z,14.38
2022-10-28T21:56:17.681Z,14.38
2022-10-28T21:58:48.261Z,14.36
2022-10-28T22:01:23.891Z,14.36
2022-10-28T22:03:54.704Z,14.35
2022-10-28T22:06:23.023Z,14.33
2022-10-28T22:08:54.908Z,14.32
2022-10-28T22:11:23.941Z,14.32
2022-10-28T22:14:00.392Z,14.33
2022-10-28T22:16:29.750Z,14.35
2022-10-28T22:19:04.125Z,14.34
2022-10-28T22:21:35.559Z,14.36
2022-10-28T22:24:03.176Z,14.35
2022-10-28T22:26:31.977Z,14.36
2022-10-28T22:29:00.420Z,14.35
2022-10-28T22:31:32.606Z,14.37
2022-10-28T22:34:00.778Z,14.37
2022-10-28T22:36:29.753Z,14.37
2022-10-28T22:38:57.711Z,14.36
2022-10-28T22:41:28.431Z,14.33
2022-10-28T22:43:58.438Z,14.31
2022-10-28T22:46:28.616Z,14.30
2022-10-28T22:48:56.852Z,14.29
2022-10-28T22:51:24.515Z,14.25
2022-10-28T22:53:52.075Z,14.20
2022-10-28T22:56:21.895Z,14.15
2022-10-28T22:58:54.096Z,14.07
2022-10-28T23:01:22.907Z,13.95
2022-10-28T23:03:52.211Z,13.89
2022-10-28T23:06:22.960Z,13.82
2022-10-28T23:08:50.597Z,13.77
2022-10-28T23:11:19.993Z,13.76
2022-10-28T23:13:52.489Z,13.73
2022-10-28T23:16:20.869Z,13.68
2022-10-28T23:18:48.899Z,13.63
2022-10-28T23:21:22.133Z,13.57
2022-10-28T23:23:56.828Z,13.54
2022-10-28T23:26:26.042Z,13.51
2022-10-28T23:28:55.602Z,13.47
2022-10-28T23:31:24.242Z,13.44
2022-10-28T23:33:53.935Z,13.42
2022-10-28T23:36:22.015Z,13.44
2022-10-28T23:38:49.514Z,13.43
2022-10-28T23:41:18.904Z,13.43
2022-10-28T23:43:47.391Z,13.43
2022-10-28T23:46:15.010Z,13.46
2022-10-28T23:48:42.724Z,13.48
2022-10-28T23:51:10.248Z,13.52
2022-10-28T23:53:38.057Z,13.56
2022-10-28T23:56:06.307Z,13.55
2022-10-28T23:58:33.912Z,13.54
